TAP1212 LPMA-LPPT
Flight info
| Callsign | TAP1212 |
|---|---|
| Flight time | 1h 16m |
| Altitude | 40000 |
| Route | DEGUN DCT NARTA DCT ESUTI |
| Aircraft | A333/H-SDE3GHIJ2J3J5M1RVWXY/LB2D1 |
Departure
| Time | 2026-05-04 21:14 |
|---|---|
| Airport | Cristiano Ronaldo International Airport (LPMA) |
Arrival
| Time | 2026-05-04 22:30 |
|---|---|
| Airport | Lisbon Humberto Delgado Airport (LPPT) |
| Time | Latitude | Longitude | Altitude | Speed | Heading |
|---|---|---|---|---|---|
| 2026-05-04 20:57 | 32.69494 | -16.77484 | 180 ft | 0 kts | 137° |
| 2026-05-04 21:07 | 32.69513 | -16.77503 | 169 ft | 4 kts | 141° |
| 2026-05-04 21:07 | 32.69530 | -16.77520 | 182 ft | 4 kts | 122° |
| 2026-05-04 21:08 | 32.69535 | -16.77546 | 180 ft | 4 kts | 66° |
| 2026-05-04 21:08 | 32.69520 | -16.77570 | 180 ft | 4 kts | 46° |
| 2026-05-04 21:08 | 32.69506 | -16.77588 | 180 ft | 0 kts | 46° |
| 2026-05-04 21:08 | 32.69506 | -16.77589 | 180 ft | 0 kts | 46° |
| 2026-05-04 21:10 | 32.69537 | -16.77549 | 180 ft | 16 kts | 46° |
| 2026-05-04 21:10 | 32.69626 | -16.77439 | 180 ft | 19 kts | 46° |
| 2026-05-04 21:11 | 32.69719 | -16.77325 | 180 ft | 19 kts | 46° |
| 2026-05-04 21:11 | 32.69813 | -16.77211 | 180 ft | 19 kts | 39° |
| 2026-05-04 21:11 | 32.69933 | -16.77196 | 180 ft | 17 kts | 325° |
| 2026-05-04 21:11 | 32.69910 | -16.77305 | 180 ft | 19 kts | 227° |
| 2026-05-04 21:12 | 32.69769 | -16.77471 | 180 ft | 37 kts | 221° |
| 2026-05-04 21:12 | 32.69590 | -16.77678 | 180 ft | 36 kts | 225° |
| 2026-05-04 21:12 | 32.69413 | -16.77882 | 180 ft | 35 kts | 224° |
| 2026-05-04 21:12 | 32.69243 | -16.78084 | 180 ft | 35 kts | 225° |
| 2026-05-04 21:13 | 32.69072 | -16.78285 | 180 ft | 35 kts | 225° |
| 2026-05-04 21:13 | 32.68914 | -16.78407 | 180 ft | 17 kts | 211° |
| 2026-05-04 21:13 | 32.68895 | -16.78461 | 180 ft | 5 kts | 302° |
| 2026-05-04 21:13 | 32.68928 | -16.78461 | 180 ft | 4 kts | 38° |
| 2026-05-04 21:14 | 32.69021 | -16.78351 | 180 ft | 48 kts | 45° |
| 2026-05-04 21:14 | 32.69434 | -16.77865 | 180 ft | 118 kts | 44° |
| 2026-05-04 21:14 | 32.70156 | -16.77020 | 334 ft | 165 kts | 45° |
| 2026-05-04 21:14 | 32.70925 | -16.75916 | 1014 ft | 183 kts | 58° |
| 2026-05-04 21:15 | 32.71480 | -16.74463 | 1715 ft | 204 kts | 74° |
| 2026-05-04 21:15 | 32.72071 | -16.72812 | 2149 ft | 234 kts | 56° |
| 2026-05-04 21:15 | 32.73128 | -16.71195 | 2668 ft | 258 kts | 50° |
| 2026-05-04 21:15 | 32.74303 | -16.69539 | 3524 ft | 265 kts | 50° |
| 2026-05-04 21:16 | 32.75486 | -16.67838 | 4480 ft | 269 kts | 50° |
| 2026-05-04 21:16 | 32.76654 | -16.66121 | 5391 ft | 273 kts | 51° |
| 2026-05-04 21:16 | 32.77847 | -16.64340 | 6379 ft | 278 kts | 51° |
| 2026-05-04 21:16 | 32.79057 | -16.62518 | 7293 ft | 284 kts | 52° |
| 2026-05-04 21:17 | 32.80293 | -16.60648 | 8178 ft | 291 kts | 52° |
| 2026-05-04 21:17 | 32.81559 | -16.58727 | 9081 ft | 299 kts | 52° |
| 2026-05-04 21:17 | 32.82856 | -16.56755 | 9978 ft | 306 kts | 52° |
| 2026-05-04 21:17 | 32.84199 | -16.54712 | 10597 ft | 322 kts | 52° |
| 2026-05-04 21:18 | 32.85608 | -16.52564 | 11217 ft | 335 kts | 52° |
| 2026-05-04 21:18 | 32.87069 | -16.50338 | 11870 ft | 347 kts | 52° |
| 2026-05-04 21:18 | 32.88572 | -16.48045 | 12566 ft | 356 kts | 52° |
| 2026-05-04 21:18 | 32.90114 | -16.45692 | 13316 ft | 364 kts | 52° |
| 2026-05-04 21:19 | 32.91682 | -16.43298 | 14067 ft | 370 kts | 52° |
| 2026-05-04 21:19 | 32.93256 | -16.40892 | 14738 ft | 376 kts | 52° |
| 2026-05-04 21:19 | 32.94877 | -16.38414 | 15435 ft | 382 kts | 52° |
| 2026-05-04 21:19 | 32.96522 | -16.35898 | 16160 ft | 387 kts | 52° |
| 2026-05-04 21:20 | 32.98191 | -16.33343 | 16861 ft | 393 kts | 52° |
| 2026-05-04 21:20 | 32.99882 | -16.30751 | 17530 ft | 399 kts | 51° |
| 2026-05-04 21:20 | 33.01600 | -16.28118 | 18229 ft | 405 kts | 51° |
| 2026-05-04 21:20 | 33.03340 | -16.25448 | 18842 ft | 411 kts | 51° |
| 2026-05-04 21:21 | 33.05102 | -16.22743 | 19455 ft | 414 kts | 51° |
| 2026-05-04 21:21 | 33.06874 | -16.20020 | 20084 ft | 418 kts | 51° |
| 2026-05-04 21:21 | 33.08668 | -16.17261 | 20716 ft | 421 kts | 51° |
| 2026-05-04 21:21 | 33.10450 | -16.14519 | 21310 ft | 425 kts | 51° |
| 2026-05-04 21:22 | 33.12270 | -16.11715 | 21919 ft | 429 kts | 51° |
| 2026-05-04 21:22 | 33.14108 | -16.08882 | 22516 ft | 432 kts | 51° |
| 2026-05-04 21:22 | 33.15957 | -16.06030 | 23085 ft | 436 kts | 51° |
| 2026-05-04 21:22 | 33.17820 | -16.03154 | 23693 ft | 439 kts | 51° |
| 2026-05-04 21:23 | 33.19696 | -16.00256 | 24169 ft | 443 kts | 51° |
| 2026-05-04 21:23 | 33.21584 | -15.97337 | 24643 ft | 446 kts | 51° |
| 2026-05-04 21:23 | 33.23483 | -15.94398 | 25111 ft | 449 kts | 51° |
| 2026-05-04 21:23 | 33.25397 | -15.91435 | 25603 ft | 451 kts | 51° |
| 2026-05-04 21:24 | 33.27301 | -15.88484 | 26053 ft | 454 kts | 51° |
| 2026-05-04 21:24 | 33.29236 | -15.85483 | 26526 ft | 456 kts | 51° |
| 2026-05-04 21:24 | 33.31179 | -15.82466 | 27001 ft | 459 kts | 51° |
| 2026-05-04 21:24 | 33.33135 | -15.79428 | 27444 ft | 462 kts | 51° |
| 2026-05-04 21:25 | 33.35097 | -15.76377 | 27899 ft | 464 kts | 52° |
| 2026-05-04 21:25 | 33.37074 | -15.73301 | 28359 ft | 467 kts | 52° |
| 2026-05-04 21:25 | 33.39060 | -15.70208 | 28809 ft | 470 kts | 52° |
| 2026-05-04 21:25 | 33.41069 | -15.67114 | 29247 ft | 472 kts | 49° |
| 2026-05-04 21:26 | 33.43297 | -15.64211 | 29681 ft | 474 kts | 44° |
| 2026-05-04 21:26 | 33.45649 | -15.61433 | 30143 ft | 476 kts | 42° |
| 2026-05-04 21:26 | 33.48061 | -15.58705 | 30509 ft | 478 kts | 41° |
| 2026-05-04 21:26 | 33.50514 | -15.55982 | 30784 ft | 483 kts | 41° |
| 2026-05-04 21:27 | 33.52993 | -15.53239 | 31122 ft | 486 kts | 41° |
| 2026-05-04 21:27 | 33.55485 | -15.50472 | 31507 ft | 488 kts | 41° |
| 2026-05-04 21:27 | 33.57950 | -15.47718 | 31868 ft | 491 kts | 41° |
| 2026-05-04 21:27 | 33.60449 | -15.44912 | 32238 ft | 492 kts | 41° |
| 2026-05-04 21:28 | 33.62940 | -15.42101 | 32745 ft | 491 kts | 41° |
| 2026-05-04 21:28 | 33.65425 | -15.39291 | 33260 ft | 489 kts | 41° |
| 2026-05-04 21:28 | 33.67899 | -15.36488 | 33742 ft | 488 kts | 41° |
| 2026-05-04 21:28 | 33.70367 | -15.33690 | 34239 ft | 487 kts | 41° |
| 2026-05-04 21:29 | 33.72827 | -15.30901 | 34599 ft | 487 kts | 41° |
| 2026-05-04 21:29 | 33.75295 | -15.28100 | 34900 ft | 488 kts | 41° |
| 2026-05-04 21:29 | 33.77735 | -15.25330 | 35202 ft | 489 kts | 41° |
| 2026-05-04 21:29 | 33.80218 | -15.22509 | 35485 ft | 492 kts | 41° |
| 2026-05-04 21:30 | 33.82707 | -15.19679 | 35806 ft | 492 kts | 41° |
| 2026-05-04 21:30 | 33.85193 | -15.16849 | 36151 ft | 492 kts | 41° |
| 2026-05-04 21:30 | 33.87680 | -15.14015 | 36476 ft | 493 kts | 41° |
| 2026-05-04 21:30 | 33.90172 | -15.11174 | 36796 ft | 493 kts | 41° |
| 2026-05-04 21:31 | 33.95158 | -15.05481 | 37433 ft | 494 kts | 40° |
| 2026-05-04 21:31 | 33.97653 | -15.02629 | 37727 ft | 494 kts | 40° |
| 2026-05-04 21:31 | 34.00146 | -14.99777 | 38029 ft | 495 kts | 40° |
| 2026-05-04 21:32 | 34.02644 | -14.96916 | 38339 ft | 495 kts | 40° |
| 2026-05-04 21:32 | 34.05140 | -14.94056 | 38645 ft | 495 kts | 40° |
| 2026-05-04 21:32 | 34.07639 | -14.91190 | 38911 ft | 496 kts | 40° |
| 2026-05-04 21:32 | 34.10139 | -14.88319 | 39174 ft | 495 kts | 40° |
| 2026-05-04 21:33 | 34.12634 | -14.85452 | 39461 ft | 494 kts | 40° |
| 2026-05-04 21:33 | 34.15121 | -14.82591 | 39714 ft | 493 kts | 40° |
| 2026-05-04 21:33 | 34.17608 | -14.79730 | 39932 ft | 493 kts | 40° |
| 2026-05-04 21:33 | 34.20096 | -14.76863 | 40137 ft | 494 kts | 41° |
| 2026-05-04 21:34 | 34.22593 | -14.73987 | 40172 ft | 499 kts | 41° |
| 2026-05-04 21:34 | 34.27641 | -14.68162 | 40178 ft | 502 kts | 41° |
| 2026-05-04 21:35 | 34.32653 | -14.62364 | 40189 ft | 501 kts | 41° |
| 2026-05-04 21:35 | 34.37694 | -14.56522 | 40193 ft | 501 kts | 41° |
| 2026-05-04 21:36 | 34.42726 | -14.50682 | 40187 ft | 500 kts | 41° |
| 2026-05-04 21:36 | 34.47745 | -14.44847 | 40186 ft | 499 kts | 41° |
| 2026-05-04 21:37 | 34.52763 | -14.39004 | 40191 ft | 499 kts | 41° |
| 2026-05-04 21:37 | 34.57775 | -14.33157 | 40185 ft | 500 kts | 41° |
| 2026-05-04 21:38 | 34.62757 | -14.27334 | 40191 ft | 500 kts | 41° |
| 2026-05-04 21:38 | 34.66954 | -14.22422 | 40208 ft | 500 kts | 41° |
| 2026-05-04 21:39 | 34.71931 | -14.16587 | 40193 ft | 500 kts | 41° |
| 2026-05-04 21:39 | 34.76953 | -14.10688 | 40192 ft | 501 kts | 41° |
| 2026-05-04 21:40 | 34.81965 | -14.04790 | 40191 ft | 501 kts | 41° |
| 2026-05-04 21:40 | 34.86979 | -13.98880 | 40195 ft | 501 kts | 41° |
| 2026-05-04 21:41 | 34.91956 | -13.93002 | 40199 ft | 501 kts | 41° |
| 2026-05-04 21:41 | 34.96957 | -13.87086 | 40208 ft | 501 kts | 41° |
| 2026-05-04 21:42 | 35.01974 | -13.81141 | 40198 ft | 503 kts | 41° |
| 2026-05-04 21:42 | 35.06996 | -13.75180 | 40199 ft | 504 kts | 41° |
| 2026-05-04 21:43 | 35.12017 | -13.69206 | 40198 ft | 504 kts | 41° |
| 2026-05-04 21:43 | 35.17039 | -13.63222 | 40197 ft | 504 kts | 41° |
| 2026-05-04 21:44 | 35.22029 | -13.57266 | 40198 ft | 504 kts | 41° |
| 2026-05-04 21:44 | 35.27048 | -13.51264 | 40198 ft | 504 kts | 41° |
| 2026-05-04 21:45 | 35.32060 | -13.45258 | 40205 ft | 504 kts | 41° |
| 2026-05-04 21:45 | 35.37044 | -13.39275 | 40203 ft | 504 kts | 41° |
| 2026-05-04 21:46 | 35.42050 | -13.33255 | 40204 ft | 504 kts | 41° |
| 2026-05-04 21:46 | 35.47052 | -13.27230 | 40205 ft | 504 kts | 41° |
| 2026-05-04 21:47 | 35.52053 | -13.21193 | 40212 ft | 504 kts | 41° |
| 2026-05-04 21:47 | 35.57052 | -13.15148 | 40204 ft | 503 kts | 41° |
| 2026-05-04 21:48 | 35.62041 | -13.09105 | 40204 ft | 504 kts | 41° |
| 2026-05-04 21:48 | 35.67032 | -13.03048 | 40204 ft | 504 kts | 41° |
| 2026-05-04 21:49 | 35.72024 | -12.96979 | 40205 ft | 504 kts | 41° |
| 2026-05-04 21:49 | 35.76985 | -12.90934 | 40205 ft | 504 kts | 41° |
| 2026-05-04 21:50 | 35.81969 | -12.84852 | 40201 ft | 504 kts | 41° |
| 2026-05-04 21:50 | 35.86954 | -12.78757 | 40199 ft | 504 kts | 41° |
| 2026-05-04 21:51 | 35.91931 | -12.72661 | 40200 ft | 504 kts | 41° |
| 2026-05-04 21:51 | 35.96892 | -12.66574 | 40199 ft | 505 kts | 41° |
| 2026-05-04 21:52 | 36.01876 | -12.60446 | 40202 ft | 505 kts | 41° |
| 2026-05-04 21:52 | 36.06898 | -12.54352 | 40201 ft | 504 kts | 39° |
| 2026-05-04 21:53 | 36.12048 | -12.48470 | 40208 ft | 504 kts | 39° |
| 2026-05-04 21:53 | 36.17216 | -12.42574 | 40198 ft | 505 kts | 39° |
| 2026-05-04 21:54 | 36.22379 | -12.36661 | 40200 ft | 505 kts | 39° |
| 2026-05-04 21:54 | 36.27510 | -12.30770 | 40198 ft | 506 kts | 39° |
| 2026-05-04 21:55 | 36.32674 | -12.24828 | 40199 ft | 506 kts | 39° |
| 2026-05-04 21:55 | 36.37833 | -12.18880 | 40213 ft | 506 kts | 39° |
| 2026-05-04 21:56 | 36.42972 | -12.12943 | 40199 ft | 503 kts | 39° |
| 2026-05-04 21:56 | 36.48102 | -12.07007 | 40197 ft | 503 kts | 39° |
| 2026-05-04 21:57 | 36.53221 | -12.01072 | 40199 ft | 503 kts | 39° |
| 2026-05-04 21:57 | 36.58346 | -11.95119 | 40197 ft | 504 kts | 39° |
| 2026-05-04 21:58 | 36.63444 | -11.89184 | 40195 ft | 504 kts | 39° |
| 2026-05-04 21:58 | 36.68564 | -11.83214 | 40195 ft | 503 kts | 39° |
| 2026-05-04 21:59 | 36.73670 | -11.77248 | 40195 ft | 503 kts | 39° |
| 2026-05-04 21:59 | 36.78771 | -11.71277 | 40189 ft | 503 kts | 39° |
| 2026-05-04 22:00 | 36.83865 | -11.65302 | 40193 ft | 503 kts | 39° |
| 2026-05-04 22:00 | 36.88931 | -11.59350 | 40192 ft | 503 kts | 39° |
| 2026-05-04 22:01 | 36.94023 | -11.53354 | 40196 ft | 503 kts | 39° |
| 2026-05-04 22:01 | 36.99109 | -11.47354 | 40186 ft | 502 kts | 39° |
| 2026-05-04 22:02 | 37.04189 | -11.41351 | 40187 ft | 502 kts | 39° |
| 2026-05-04 22:02 | 37.09275 | -11.35328 | 40184 ft | 502 kts | 39° |
| 2026-05-04 22:03 | 37.14354 | -11.29302 | 40185 ft | 502 kts | 39° |
| 2026-05-04 22:03 | 37.19405 | -11.23297 | 40205 ft | 504 kts | 39° |
| 2026-05-04 22:04 | 37.24487 | -11.17244 | 40191 ft | 504 kts | 39° |
| 2026-05-04 22:04 | 37.29576 | -11.11171 | 40193 ft | 504 kts | 39° |
| 2026-05-04 22:05 | 37.34651 | -11.05102 | 40178 ft | 504 kts | 39° |
| 2026-05-04 22:05 | 37.39721 | -10.99027 | 39950 ft | 500 kts | 39° |
| 2026-05-04 22:05 | 37.42224 | -10.96022 | 39711 ft | 496 kts | 39° |
| 2026-05-04 22:06 | 37.44713 | -10.93033 | 39513 ft | 495 kts | 39° |
| 2026-05-04 22:06 | 37.47207 | -10.90036 | 39288 ft | 495 kts | 38° |
| 2026-05-04 22:06 | 37.49688 | -10.87050 | 38915 ft | 493 kts | 38° |
| 2026-05-04 22:06 | 37.52144 | -10.84094 | 38229 ft | 496 kts | 38° |
| 2026-05-04 22:07 | 37.54645 | -10.81080 | 37629 ft | 497 kts | 38° |
| 2026-05-04 22:07 | 37.57148 | -10.78060 | 37048 ft | 498 kts | 38° |
| 2026-05-04 22:07 | 37.59653 | -10.75033 | 36435 ft | 499 kts | 38° |
| 2026-05-04 22:07 | 37.62165 | -10.71997 | 35800 ft | 500 kts | 38° |
| 2026-05-04 22:08 | 37.64677 | -10.68957 | 35124 ft | 501 kts | 37° |
| 2026-05-04 22:08 | 37.67211 | -10.65889 | 34368 ft | 505 kts | 37° |
| 2026-05-04 22:08 | 37.69724 | -10.62844 | 33431 ft | 510 kts | 38° |
| 2026-05-04 22:08 | 37.72297 | -10.59723 | 32528 ft | 514 kts | 38° |
| 2026-05-04 22:09 | 37.74885 | -10.56579 | 31565 ft | 518 kts | 38° |
| 2026-05-04 22:09 | 37.77486 | -10.53414 | 30796 ft | 518 kts | 39° |
| 2026-05-04 22:09 | 37.80069 | -10.50263 | 30238 ft | 513 kts | 39° |
| 2026-05-04 22:09 | 37.82594 | -10.47177 | 30065 ft | 498 kts | 39° |
| 2026-05-04 22:10 | 37.85059 | -10.44162 | 29755 ft | 486 kts | 39° |
| 2026-05-04 22:10 | 37.87419 | -10.41143 | 29322 ft | 479 kts | 41° |
| 2026-05-04 22:10 | 37.89721 | -10.38069 | 28314 ft | 484 kts | 41° |
| 2026-05-04 22:10 | 37.92044 | -10.34940 | 27345 ft | 489 kts | 42° |
| 2026-05-04 22:11 | 37.94370 | -10.31804 | 26634 ft | 486 kts | 42° |
| 2026-05-04 22:11 | 37.96678 | -10.28693 | 26019 ft | 482 kts | 42° |
| 2026-05-04 22:11 | 37.98966 | -10.25610 | 25419 ft | 476 kts | 41° |
| 2026-05-04 22:11 | 38.01224 | -10.22569 | 24828 ft | 471 kts | 41° |
| 2026-05-04 22:12 | 38.03464 | -10.19552 | 24273 ft | 466 kts | 41° |
| 2026-05-04 22:12 | 38.05680 | -10.16566 | 23641 ft | 463 kts | 41° |
| 2026-05-04 22:12 | 38.07871 | -10.13610 | 23003 ft | 457 kts | 41° |
| 2026-05-04 22:12 | 38.10012 | -10.10718 | 22517 ft | 449 kts | 41° |
| 2026-05-04 22:13 | 38.12128 | -10.07857 | 22045 ft | 440 kts | 41° |
| 2026-05-04 22:13 | 38.14207 | -10.05045 | 21578 ft | 432 kts | 41° |
| 2026-05-04 22:13 | 38.16243 | -10.02288 | 21239 ft | 422 kts | 41° |
| 2026-05-04 22:13 | 38.18388 | -9.99894 | 21035 ft | 398 kts | 25° |
| 2026-05-04 22:14 | 38.20805 | -9.98369 | 20846 ft | 378 kts | 16° |
| 2026-05-04 22:14 | 38.23197 | -9.97123 | 20705 ft | 365 kts | 14° |
| 2026-05-04 22:14 | 38.25522 | -9.95937 | 20539 ft | 354 kts | 14° |
| 2026-05-04 22:14 | 38.27782 | -9.94778 | 20285 ft | 347 kts | 14° |
| 2026-05-04 22:15 | 38.29988 | -9.93640 | 19858 ft | 346 kts | 14° |
| 2026-05-04 22:15 | 38.32211 | -9.92485 | 19465 ft | 343 kts | 15° |
| 2026-05-04 22:15 | 38.34419 | -9.91331 | 19072 ft | 342 kts | 15° |
| 2026-05-04 22:15 | 38.36612 | -9.90181 | 18694 ft | 340 kts | 15° |
| 2026-05-04 22:16 | 38.38796 | -9.89032 | 18274 ft | 338 kts | 15° |
| 2026-05-04 22:16 | 38.40958 | -9.87893 | 17829 ft | 335 kts | 15° |
| 2026-05-04 22:16 | 38.43105 | -9.86760 | 17407 ft | 333 kts | 16° |
| 2026-05-04 22:16 | 38.45242 | -9.85633 | 16946 ft | 331 kts | 16° |
| 2026-05-04 22:17 | 38.47367 | -9.84511 | 16445 ft | 331 kts | 16° |
| 2026-05-04 22:17 | 38.49513 | -9.83379 | 15850 ft | 335 kts | 17° |
| 2026-05-04 22:17 | 38.51653 | -9.82241 | 15231 ft | 330 kts | 18° |
| 2026-05-04 22:17 | 38.53544 | -9.80683 | 14627 ft | 330 kts | 41° |
| 2026-05-04 22:18 | 38.54756 | -9.78202 | 13946 ft | 333 kts | 67° |
| 2026-05-04 22:18 | 38.55395 | -9.75364 | 13155 ft | 330 kts | 73° |
| 2026-05-04 22:18 | 38.55926 | -9.72526 | 12376 ft | 326 kts | 74° |
| 2026-05-04 22:18 | 38.56458 | -9.69730 | 11633 ft | 321 kts | 73° |
| 2026-05-04 22:19 | 38.57000 | -9.66986 | 10884 ft | 316 kts | 73° |
| 2026-05-04 22:19 | 38.57547 | -9.64289 | 10163 ft | 310 kts | 72° |
| 2026-05-04 22:19 | 38.58091 | -9.61643 | 9381 ft | 306 kts | 72° |
| 2026-05-04 22:19 | 38.58475 | -9.58987 | 8613 ft | 303 kts | 85° |
| 2026-05-04 22:20 | 38.58284 | -9.56322 | 7853 ft | 301 kts | 104° |
| 2026-05-04 22:20 | 38.57339 | -9.53960 | 7155 ft | 298 kts | 130° |
| 2026-05-04 22:20 | 38.55727 | -9.52411 | 6600 ft | 287 kts | 155° |
| 2026-05-04 22:20 | 38.54006 | -9.51250 | 6008 ft | 282 kts | 142° |
| 2026-05-04 22:21 | 38.52815 | -9.49328 | 5390 ft | 275 kts | 112° |
| 2026-05-04 22:21 | 38.52434 | -9.47000 | 4778 ft | 264 kts | 83° |
| 2026-05-04 22:21 | 38.52841 | -9.44787 | 4415 ft | 247 kts | 67° |
| 2026-05-04 22:21 | 38.53406 | -9.42826 | 4325 ft | 223 kts | 65° |
| 2026-05-04 22:22 | 38.53931 | -9.41073 | 4241 ft | 202 kts | 65° |
| 2026-05-04 22:22 | 38.54412 | -9.39469 | 4125 ft | 185 kts | 64° |
| 2026-05-04 22:22 | 38.54861 | -9.37961 | 4022 ft | 185 kts | 64° |
| 2026-05-04 22:22 | 38.55325 | -9.36396 | 3984 ft | 191 kts | 65° |
| 2026-05-04 22:23 | 38.55791 | -9.34792 | 3988 ft | 193 kts | 65° |
| 2026-05-04 22:23 | 38.56253 | -9.33175 | 3995 ft | 193 kts | 65° |
| 2026-05-04 22:23 | 38.56719 | -9.31588 | 3986 ft | 192 kts | 64° |
| 2026-05-04 22:23 | 38.57215 | -9.30002 | 3993 ft | 192 kts | 63° |
| 2026-05-04 22:24 | 38.57718 | -9.28423 | 3988 ft | 191 kts | 63° |
| 2026-05-04 22:24 | 38.58203 | -9.26897 | 3982 ft | 176 kts | 63° |
| 2026-05-04 22:24 | 38.58641 | -9.25513 | 3988 ft | 162 kts | 62° |
| 2026-05-04 22:24 | 38.59134 | -9.24288 | 3984 ft | 147 kts | 44° |
| 2026-05-04 22:25 | 38.59877 | -9.23474 | 3967 ft | 138 kts | 27° |
| 2026-05-04 22:25 | 38.60716 | -9.22902 | 3822 ft | 136 kts | 20° |
| 2026-05-04 22:25 | 38.61587 | -9.22422 | 3625 ft | 136 kts | 18° |
| 2026-05-04 22:25 | 38.62445 | -9.21969 | 3443 ft | 134 kts | 17° |
| 2026-05-04 22:26 | 38.63298 | -9.21514 | 3250 ft | 132 kts | 18° |
| 2026-05-04 22:26 | 38.64144 | -9.21063 | 3053 ft | 132 kts | 18° |
| 2026-05-04 22:26 | 38.64990 | -9.20612 | 2885 ft | 132 kts | 18° |
| 2026-05-04 22:26 | 38.65551 | -9.20312 | 2759 ft | 132 kts | 18° |
| 2026-05-04 22:27 | 38.66398 | -9.19860 | 2561 ft | 131 kts | 18° |
| 2026-05-04 22:27 | 38.67513 | -9.19265 | 2355 ft | 131 kts | 18° |
| 2026-05-04 22:27 | 38.68355 | -9.18817 | 2159 ft | 130 kts | 17° |
| 2026-05-04 22:27 | 38.69191 | -9.18371 | 1989 ft | 130 kts | 17° |
| 2026-05-04 22:28 | 38.69755 | -9.18070 | 1871 ft | 130 kts | 18° |
| 2026-05-04 22:28 | 38.70590 | -9.17624 | 1689 ft | 129 kts | 18° |
| 2026-05-04 22:28 | 38.71409 | -9.17186 | 1502 ft | 129 kts | 17° |
| 2026-05-04 22:28 | 38.72240 | -9.16742 | 1346 ft | 129 kts | 18° |
| 2026-05-04 22:29 | 38.73061 | -9.16282 | 1172 ft | 129 kts | 19° |
| 2026-05-04 22:29 | 38.73876 | -9.15817 | 1005 ft | 128 kts | 19° |
| 2026-05-04 22:29 | 38.74697 | -9.15394 | 821 ft | 129 kts | 17° |
| 2026-05-04 22:29 | 38.75536 | -9.14976 | 620 ft | 129 kts | 20° |
| 2026-05-04 22:30 | 38.76356 | -9.14535 | 456 ft | 127 kts | 19° |
| 2026-05-04 22:30 | 38.77163 | -9.14103 | 366 ft | 121 kts | 20° |
| 2026-05-04 22:30 | 38.77844 | -9.13753 | 373 ft | 91 kts | 23° |
| 2026-05-04 22:30 | 38.78180 | -9.13560 | 376 ft | 35 kts | 28° |
| 2026-05-04 22:31 | 38.78351 | -9.13383 | 373 ft | 23 kts | 49° |
| 2026-05-04 22:31 | 38.78341 | -9.13267 | 368 ft | 5 kts | 179° |
| 2026-05-04 22:31 | 38.78299 | -9.13280 | 370 ft | 7 kts | 197° |
| 2026-05-04 22:31 | 38.78245 | -9.13304 | 368 ft | 8 kts | 199° |
| 2026-05-04 22:32 | 38.78186 | -9.13332 | 362 ft | 10 kts | 200° |
| 2026-05-04 22:32 | 38.78121 | -9.13367 | 368 ft | 10 kts | 203° |
| 2026-05-04 22:32 | 38.78051 | -9.13403 | 363 ft | 11 kts | 197° |
| 2026-05-04 22:32 | 38.77983 | -9.13404 | 364 ft | 10 kts | 169° |
| 2026-05-04 22:33 | 38.77902 | -9.13383 | 354 ft | 13 kts | 168° |
| 2026-05-04 22:33 | 38.77810 | -9.13359 | 358 ft | 14 kts | 168° |
| 2026-05-04 22:33 | 38.77705 | -9.13333 | 349 ft | 9 kts | 169° |
| 2026-05-04 22:33 | 38.77685 | -9.13328 | 349 ft | 4 kts | 170° |
| 2026-05-04 22:34 | 38.77641 | -9.13322 | 349 ft | 7 kts | 175° |
| 2026-05-04 22:34 | 38.77625 | -9.13316 | 351 ft | 0 kts | 148° |